Terminal Aerodrome Forecast
Issued by NWS Wilmington, OH

Current Version | Previous Version | Text Only | Print | Product List | Glossary Off
Versions: 1 2 3 4 5 6 7 8 9 10 11 12 13 14 15 16 17 18 19 20

000
FTUS41 KILN 152340
TAFDAY
TAF
KDAY 152340Z 1600/1624 26005KT P6SM SCT050
     FM160200 VRB03KT P6SM SCT250
     FM160800 00000KT 4SM BR SCT250
      TEMPO 1609/1612 1SM BR
     FM161400 16006KT P6SM BKN040=

USA.gov is the U.S. government's official web portal to all federal, state and local government web resources and services.